X  Close Metar Aviation Weather Data     LBPD Plovdiv International Airport
Temperature
7°C Temperature
7°C Dewpoint
100% Humidity



Wind
3 M/S
6 MPH
10 KM/H
5 KTS



100°
E
Current Conditions

Mist Mist
Pressure 1011.85 (hPa) - 29.88 (inHg)
Visibility 3.1 (mile) - 5 (km)
Airport
Airport-code LBPD

Location: Plovdiv International Airport
Distance: 14 (km)

Metar:
LBPD 020200Z AUTO 10005KT 5000 BR OVC003/// 07/07 Q1012

Time: 02-03-2024 04:00 EET